Maersk Bali — 9V7499 — position and weather

sailwx.info

Track history (hours):
 
Tides and Currents Weather Stations Pressure Air Temp Water Temp Dewpoint Dewpoint Depression Visibility Wind Speed Wind Dir Waves Ship Positions

Maersk Bali

Last reported at 2016-Feb-03 16:10 UTC. Time now 2016-Feb-07 08:39 UTC.
Position N 40°45' E 029°29'.

Length 223 m; draft 7.8 m.

Type: Cargo ship. MMSI: 563102000.

Date/timePositionNaut miles runAvg speedWind from/ knotsBaromVisibWave heightAir tempDewpointWater temp
2016-Feb-03 16:10N 40°45' E 029°29'610.0
2016-Feb-03 15:33N 40°44' E 029°22'9 9.1
2016-Feb-03 14:33N 40°46' E 029°10'3 3.2
2016-Feb-03 13:32N 40°46' E 029°06'1 1.4
2016-Feb-03 12:29N 40°45' E 029°06'1 0.6
2016-Feb-03 11:33N 40°45' E 029°06'0 0.2
2016-Feb-03 10:33N 40°46' E 029°06'0 0.4
2016-Feb-03 09:32N 40°46' E 029°06'0 0.4
2016-Feb-03 08:33N 40°46' E 029°06'2 1.7
2016-Feb-03 07:31N 40°47' E 029°04'9 9.0
2016-Feb-03 06:33N 40°43' E 028°54'14311.6
2016-Feb-02 18:15N 39°56' E 025°56'1114.4
2016-Feb-02 17:30N 39°47' E 025°49'4314.2
2016-Feb-02 14:26N 39°08' E 025°24'12113.0
2016-Feb-02 05:09N 37°25' E 024°04'712.1
2016-Feb-02 04:33N 37°18' E 024°00'1412.2
2016-Feb-02 03:23N 37°05' E 023°53'45612.0
2016-Jan-31 13:27N 35°49' E 014°34'1 0.1
2016-Jan-31 00:33N 35°48' E 014°35'5 2.8
2016-Jan-30 22:33N 35°43' E 014°34'0 0.3
2016-Jan-30 21:26N 35°42' E 014°35'7 7.6
2016-Jan-30 20:33N 35°44' E 014°26'1313.0
2016-Jan-30 19:33N 35°51' E 014°13'1312.9
2016-Jan-30 18:33N 35°58' E 013°60'1412.6
2016-Jan-30 17:28N 36°05' E 013°46'1212.7
2016-Jan-30 16:33N 36°12' E 013°34'1412.9
2016-Jan-30 15:27N 36°21' E 013°20'1312.8
2016-Jan-30 14:26N 36°28' E 013°07'2412.7
2016-Jan-30 12:33N 36°42' E 012°42'1412.9
2016-Jan-30 11:26N 36°50' E 012°28'62912.1
2016-Jan-28 07:31N 36°40' W 000°38'9413.4
2016-Jan-28 00:31N 36°20' W 002°32'13113.1
2016-Jan-27 14:31N 36°05' W 005°13'1010.6
2016-Jan-27 13:33N 36°09' W 005°25'1 0.6
2016-Jan-27 11:33N 36°09' W 005°26'0 0.0
2016-Jan-27 07:33N 36°09' W 005°26'0 0.0
2016-Jan-27 06:30N 36°09' W 005°26'0 0.0
2016-Jan-27 05:33N 36°09' W 005°26'0 0.0
2016-Jan-27 04:33N 36°09' W 005°26'0 0.0
2016-Jan-27 03:33N 36°09' W 005°26'0 0.0
2016-Jan-27 02:33N 36°09' W 005°26'0 0.0
2016-Jan-27 01:21N 36°09' W 005°26'0 0.0
2016-Jan-27 00:33N 36°09' W 005°26'0 0.0
2016-Jan-26 23:33N 36°09' W 005°26'0 0.0
2016-Jan-26 22:30N 36°09' W 005°26'0 0.0
2016-Jan-26 21:33N 36°09' W 005°26'0 0.0
2016-Jan-26 20:33N 36°09' W 005°26'0 0.0
2016-Jan-26 19:21N 36°09' W 005°26'0 0.0
2016-Jan-26 18:33N 36°09' W 005°26'3 2.4
2016-Jan-26 17:14N 36°07' W 005°23'711.1
2016-Jan-26 16:33N 35°59' W 005°23'  
Track history (hours):
 
Tides and Currents Weather Stations Pressure Air Temp Water Temp Dewpoint Dewpoint Depression Visibility Wind Speed Wind Dir Waves Ship Positions

Maersk Bali

Last reported at 2016-Feb-03 16:10 UTC. Time now 2016-Feb-07 08:39 UTC.
Position N 40°45' E 029°29'.

Length 223 m; draft 7.8 m.

Type: Cargo ship. MMSI: 563102000.

Date/timePositionNaut miles runAvg speedWind from/ knotsBaromVisibWave heightAir tempDewpointWater temp
2016-Feb-03 16:10N 40°45' E 029°29'610.0
2016-Feb-03 15:33N 40°44' E 029°22'9 9.1
2016-Feb-03 14:33N 40°46' E 029°10'3 3.2
2016-Feb-03 13:32N 40°46' E 029°06'1 1.4
2016-Feb-03 12:29N 40°45' E 029°06'1 0.6
2016-Feb-03 11:33N 40°45' E 029°06'0 0.2
2016-Feb-03 10:33N 40°46' E 029°06'0 0.4
2016-Feb-03 09:32N 40°46' E 029°06'0 0.4
2016-Feb-03 08:33N 40°46' E 029°06'2 1.7
2016-Feb-03 07:31N 40°47' E 029°04'9 9.0
2016-Feb-03 06:33N 40°43' E 028°54'14311.6
2016-Feb-02 18:15N 39°56' E 025°56'1114.4
2016-Feb-02 17:30N 39°47' E 025°49'4314.2
2016-Feb-02 14:26N 39°08' E 025°24'12113.0
2016-Feb-02 05:09N 37°25' E 024°04'712.1
2016-Feb-02 04:33N 37°18' E 024°00'1412.2
2016-Feb-02 03:23N 37°05' E 023°53'45612.0
2016-Jan-31 13:27N 35°49' E 014°34'1 0.1
2016-Jan-31 00:33N 35°48' E 014°35'5 2.8
2016-Jan-30 22:33N 35°43' E 014°34'0 0.3
2016-Jan-30 21:26N 35°42' E 014°35'7 7.6
2016-Jan-30 20:33N 35°44' E 014°26'1313.0
2016-Jan-30 19:33N 35°51' E 014°13'1312.9
2016-Jan-30 18:33N 35°58' E 013°60'1412.6
2016-Jan-30 17:28N 36°05' E 013°46'1212.7
2016-Jan-30 16:33N 36°12' E 013°34'1412.9
2016-Jan-30 15:27N 36°21' E 013°20'1312.8
2016-Jan-30 14:26N 36°28' E 013°07'2412.7
2016-Jan-30 12:33N 36°42' E 012°42'1412.9
2016-Jan-30 11:26N 36°50' E 012°28'62912.1
2016-Jan-28 07:31N 36°40' W 000°38'9413.4
2016-Jan-28 00:31N 36°20' W 002°32'13113.1
2016-Jan-27 14:31N 36°05' W 005°13'1010.6
2016-Jan-27 13:33N 36°09' W 005°25'1 0.6
2016-Jan-27 11:33N 36°09' W 005°26'0 0.0
2016-Jan-27 07:33N 36°09' W 005°26'0 0.0
2016-Jan-27 06:30N 36°09' W 005°26'0 0.0
2016-Jan-27 05:33N 36°09' W 005°26'0 0.0
2016-Jan-27 04:33N 36°09' W 005°26'0 0.0
2016-Jan-27 03:33N 36°09' W 005°26'0 0.0
2016-Jan-27 02:33N 36°09' W 005°26'0 0.0
2016-Jan-27 01:21N 36°09' W 005°26'0 0.0
2016-Jan-27 00:33N 36°09' W 005°26'0 0.0
2016-Jan-26 23:33N 36°09' W 005°26'0 0.0
2016-Jan-26 22:30N 36°09' W 005°26'0 0.0
2016-Jan-26 21:33N 36°09' W 005°26'0 0.0
2016-Jan-26 20:33N 36°09' W 005°26'0 0.0
2016-Jan-26 19:21N 36°09' W 005°26'0 0.0
2016-Jan-26 18:33N 36°09' W 005°26'3 2.4
2016-Jan-26 17:14N 36°07' W 005°23'711.1
2016-Jan-26 16:33N 35°59' W 005°23'  

Dump ship's entire track history